^^
Your Local Weather - Clay, NY Station Historical Data
Daily Summary for January 14, 2018 Units:  Metric    English   Both
« Previous Day
Next Day »
Daily Weekly Monthly Yearly Custom
  High: Low: Average:
Temperature: -10.4 °C -26.8 °C -18.9 °C
Dew Point: -11.8 °C -29.2 °C -20.9 °C
Humidity: 89% 80% 85%
Wind Speed: 3.2km/h 0km/h 0.3km/h
Wind Gust: 8km/h - -
Wind- - SW
Pressure: 1041.5 hPa 1033.7 hPa -
Precipitation: 0.76 mm    
Historical Graphs
 
 
Tabular Data for January 14, 2018
Time Temperature Dew Point Pressure Wind Wind Speed Wind Gust Humidity Rainfall Rate (Hourly) solar
00:02 -18.6 °C -20.4 °C 1033.7 hPa Calm     85% 0 mm 0 W/m2
00:08 -18.8 °C -20.7 °C 1033.7 hPa Calm     85% 0 mm 0 W/m2
00:14 -19.1 °C -20.9 °C 1033.7 hPa Calm     85% 0 mm 0 W/m2
00:19 -19.3 °C -21.2 °C 1033.7 hPa Calm     85% 0 mm 0 W/m2
00:26 -19.4 °C -21.3 °C 1033.7 hPa Calm     85% 0 mm 0 W/m2
00:36 -19.6 °C -21.5 °C 1033.7 hPa Calm     85% 0 mm 0 W/m2
00:48 -20.1 °C -22.1 °C 1034.4 hPa Calm     84% 0 mm 0 W/m2
00:54 -20.3 °C -22.3 °C 1034.4 hPa Calm     84% 0 mm 0 W/m2
01:00 -20.5 °C -22.5 °C 1034.4 hPa Calm     84% 0 mm 0 W/m2
01:12 -20.8 °C -22.8 °C 1034.8 hPa Calm     84% 0 mm 0 W/m2
01:18 -21 °C -23 °C 1034.8 hPa Calm     84% 0 mm 0 W/m2
01:24 -21.1 °C -23.1 °C 1034.8 hPa Calm     84% 0 mm 0 W/m2
01:30 -21.3 °C -23.4 °C 1035.1 hPa Calm     83% 0 mm 0 W/m2
01:36 -21.4 °C -23.5 °C 1035.1 hPa Calm     83% 0 mm 0 W/m2
01:42 -21.6 °C -23.7 °C 1035.4 hPa Calm     83% 0 mm 0 W/m2
01:48 -21.8 °C -23.9 °C 1035.4 hPa Calm     83% 0 mm 0 W/m2
01:54 -21.9 °C -24.1 °C 1035.4 hPa Calm     83% 0 mm 0 W/m2
02:00 -22.1 °C -24.2 °C 1035.4 hPa Calm     83% 0 mm 0 W/m2
02:06 -22.2 °C -24.3 °C 1035.4 hPa Calm     83% 0 mm 0 W/m2
02:12 -22.3 °C -24.4 °C 1035.4 hPa Calm     83% 0 mm 0 W/m2
02:18 -22.3 °C -24.4 °C 1035.4 hPa Calm     83% 0 mm 0 W/m2
02:24 -22.4 °C -24.5 °C 1035.8 hPa Calm     83% 0 mm 0 W/m2
02:30 -22.4 °C -24.6 °C 1035.8 hPa Calm     83% 0 mm 0 W/m2
02:36 -22.6 °C -24.7 °C 1036.1 hPa Calm     83% 0 mm 0 W/m2
02:42 -22.7 °C -24.9 °C 1036.1 hPa Calm     82% 0 mm 0 W/m2
02:48 -22.9 °C -25.1 °C 1036.1 hPa Calm     82% 0 mm 0 W/m2
02:54 -23 °C -25.2 °C 1036.1 hPa Calm     82% 0 mm 0 W/m2
03:00 -23.1 °C -25.3 °C 1036.1 hPa Calm     82% 0 mm 0 W/m2
03:06 -23.1 °C -25.3 °C 1036.5 hPa Calm     82% 0 mm 0 W/m2
03:16 -23.3 °C -25.5 °C 1036.5 hPa Calm     82% 0 mm 0 W/m2
03:22 -23.4 °C -25.6 °C 1036.5 hPa Calm     82% 0 mm 0 W/m2
03:28 -23.6 °C -25.8 °C 1036.5 hPa Calm     82% 0 mm 0 W/m2
03:34 -23.7 °C -25.9 °C 1036.5 hPa Calm     82% 0 mm 0 W/m2
03:40 -23.7 °C -25.9 °C 1036.5 hPa Calm     82% 0 mm 0 W/m2
03:46 -23.8 °C -26 °C 1036.8 hPa Calm     82% 0 mm 0 W/m2
03:52 -23.8 °C -26 °C 1036.8 hPa Calm     82% 0 mm 0 W/m2
03:58 -23.8 °C -26.1 °C 1036.8 hPa Calm     82% 0 mm 0 W/m2
04:04 -23.8 °C -26.1 °C 1036.8 hPa Calm     82% 0 mm 0 W/m2
04:16 -23.9 °C -26.2 °C 1037.1 hPa Calm     82% 0 mm 0 W/m2
04:28 -24.1 °C -26.3 °C 1037.1 hPa Calm     82% 0 mm 0 W/m2
04:34 -24.2 °C -26.4 °C 1037.1 hPa Calm     82% 0 mm 0 W/m2
04:40 -24.2 °C -26.4 °C 1037.1 hPa Calm     82% 0 mm 0 W/m2
04:46 -24.3 °C -26.5 °C 1037.1 hPa Calm     82% 0 mm 0 W/m2
04:52 -24.3 °C -26.6 °C 1037.1 hPa Calm     82% 0 mm 0 W/m2
04:58 -24.4 °C -26.7 °C 1037.1 hPa Calm     81% 0 mm 0 W/m2
05:08 -24.5 °C -26.8 °C 1037.5 hPa Calm     81% 0 mm 0 W/m2
05:14 -24.6 °C -26.9 °C 1037.5 hPa Calm     81% 0 mm 0 W/m2
05:20 -24.7 °C -27.1 °C 1037.8 hPa Calm     81% 0 mm 0 W/m2
05:26 -24.9 °C -27.2 °C 1037.8 hPa Calm     81% 0 mm 0 W/m2
05:38 -25.2 °C -27.5 °C 1037.8 hPa Calm     81% 0 mm 0 W/m2
05:44 -25.3 °C -27.7 °C 1037.8 hPa Calm     81% 0 mm 0 W/m2
05:50 -25.4 °C -27.8 °C 1037.8 hPa Calm     81% 0 mm 0 W/m2
05:56 -25.6 °C -27.8 °C 1038.1 hPa Calm     81% 0 mm 0 W/m2
06:02 -25.6 °C -27.8 °C 1038.1 hPa Calm     81% 0 mm 0 W/m2
06:08 -25.6 °C -27.9 °C 1038.1 hPa Calm     81% 0 mm 0 W/m2
06:14 -25.6 °C -27.9 °C 1038.1 hPa Calm     81% 0 mm 0 W/m2
06:20 -25.7 °C -27.9 °C 1038.1 hPa Calm     81% 0 mm 0 W/m2
06:40 -26 °C -28.4 °C 1038.5 hPa Calm     80% 0 mm 0 W/m2
06:46 -26.1 °C -28.6 °C 1038.8 hPa Calm     80% 0 mm 0 W/m2
06:56 -26.3 °C -28.7 °C 1038.8 hPa Calm     80% 0 mm 0 W/m2
07:02 -26.4 °C -28.8 °C 1038.8 hPa Calm     80% 0 mm 0 W/m2
07:10 -26.5 °C -28.9 °C 1038.8 hPa Calm     80% 0 mm 0 W/m2
07:16 -26.6 °C -29 °C 1038.8 hPa Calm     80% 0 mm 0 W/m2
07:22 -26.7 °C -29.1 °C 1038.8 hPa Calm     80% 0 mm 0 W/m2
07:28 -26.7 °C -29.1 °C 1039.2 hPa Calm     80% 0 mm 0 W/m2
07:34 -26.8 °C -29.2 °C 1039.2 hPa Calm     80% 0 mm 0 W/m2
07:40 -26.8 °C -29.2 °C 1039.2 hPa Calm     80% 0 mm 5 W/m2
07:46 -26.7 °C -29.1 °C 1039.2 hPa Calm     80% 0 mm 7 W/m2
07:52 -26.7 °C -29.1 °C 1039.2 hPa Calm     80% 0 mm 7 W/m2
07:58 -26.7 °C -29.1 °C 1039.2 hPa Calm     80% 0 mm 11 W/m2
08:04 -26.7 °C -29.1 °C 1039.5 hPa Calm     80% 0 mm 11 W/m2
08:10 -26.7 °C -29.1 °C 1039.5 hPa Calm     80% 0 mm 12 W/m2
08:16 -26.7 °C -29.1 °C 1039.8 hPa Calm     80% 0 mm 14 W/m2
08:26 -26.6 °C -29 °C 1039.8 hPa Calm     80% 0 mm 18 W/m2
08:32 -26.4 °C -28.8 °C 1039.8 hPa Calm     80% 0 mm 76 W/m2
08:38 -26.2 °C -28.4 °C 1040.2 hPa Calm     81% 0 mm 90 W/m2
08:44 -25.8 °C -28.1 °C 1040.2 hPa Calm     81% 0 mm 100 W/m2
08:50 -25.2 °C -27.6 °C 1040.5 hPa Calm     81% 0 mm 109 W/m2
08:58 -24.2 °C -26.4 °C 1040.5 hPa Calm     82% 0 mm 120 W/m2
09:04 -23.5 °C -25.7 °C 1040.5 hPa Calm     82% 0 mm 125 W/m2
09:14 -22.3 °C -24.4 °C 1040.9 hPa Calm     83% 0 mm 137 W/m2
09:20 -21.6 °C -23.6 °C 1040.9 hPa Calm     84% 0 mm 144 W/m2
09:26 -20.6 °C -22.6 °C 1040.9 hPa Calm     84% 0 mm 151 W/m2
09:32 -19.7 °C -21.6 °C 1040.9 hPa Calm     85% 0 mm 160 W/m2
09:44 -18.3 °C -20.1 °C 1040.9 hPa ENE 1.6 km/h 3.2 km/h 86% 0 mm 174 W/m2
09:50 -17.8 °C -19.6 °C 1041.2 hPa Calm     86% 0 mm 181 W/m2
09:56 -17.2 °C -19 °C 1041.2 hPa Calm     86% 0 mm 186 W/m2
10:02 -16.5 °C -18.2 °C 1041.5 hPa Calm     87% 0 mm 193 W/m2
10:08 -16.3 °C -18.1 °C 1041.5 hPa Calm     86% 0 mm 199 W/m2
10:14 -16.2 °C -17.9 °C 1041.5 hPa Calm     86% 0 mm 204 W/m2
10:20 -15.7 °C -17.3 °C 1041.5 hPa Calm     87% 0 mm 209 W/m2
10:32 -15.2 °C -16.8 °C 1041.5 hPa SE 1.6 km/h 3.2 km/h 87% 0 mm 220 W/m2
10:44 -15.1 °C -16.7 °C 1041.5 hPa ESE 1.6 km/h 3.2 km/h 87% 0 mm 229 W/m2
10:50 -15.1 °C -16.7 °C 1041.5 hPa ENE 3.2 km/h 3.2 km/h 87% 0 mm 236 W/m2
10:56 -15.1 °C -16.9 °C 1041.5 hPa ESE 3.2 km/h 4.8 km/h 86% 0 mm 239 W/m2
11:02 -14.9 °C -16.6 °C 1041.5 hPa SE 1.6 km/h 8 km/h 87% 0 mm 244 W/m2
11:08 -14.7 °C -16.4 °C 1041.5 hPa SE 3.2 km/h 8 km/h 87% 0 mm 248 W/m2
11:14 -14.7 °C -16.4 °C 1041.5 hPa ENE 3.2 km/h 3.2 km/h 87% 0 mm 251 W/m2
11:20 -14.7 °C -16.3 °C 1041.5 hPa ESE 3.2 km/h 4.8 km/h 87% 0 mm 253 W/m2
11:26 -14.4 °C -16.1 °C 1041.2 hPa SE 1.6 km/h 4.8 km/h 87% 0 mm 257 W/m2
11:38 -13.8 °C -15.4 °C 1041.2 hPa SE 1.6 km/h 4.8 km/h 88% 0 mm 260 W/m2
11:44 -13.6 °C -15.2 °C 1040.9 hPa SE 1.6 km/h 4.8 km/h 88% 0 mm 262 W/m2
11:50 -13.4 °C -14.9 °C 1040.9 hPa SE 3.2 km/h 3.2 km/h 88% 0 mm 264 W/m2
11:56 -13.4 °C -14.9 °C 1040.9 hPa SE 1.6 km/h 3.2 km/h 88% 0 mm 265 W/m2
12:02 -13.2 °C -14.7 °C 1040.9 hPa SE 1.6 km/h 3.2 km/h 88% 0 mm 267 W/m2
12:08 -12.8 °C -14.4 °C 1040.9 hPa Calm   3.2 km/h 88% 0 mm 276 W/m2
12:14 -12.3 °C -13.9 °C 1040.9 hPa Calm     88% 0 mm 295 W/m2
12:20 -12 °C -13.6 °C 1040.9 hPa Calm     88% 0 mm 483 W/m2
12:26 -11.9 °C -13.3 °C 1040.9 hPa Calm   1.6 km/h 89% 0 mm 513 W/m2
12:40 -12.2 °C -13.8 °C 1040.5 hPa Calm     88% 0 mm 506 W/m2
12:46 -12.2 °C -13.8 °C 1040.5 hPa Calm     88% 0 mm 503 W/m2
12:52 -11.9 °C -13.5 °C 1040.5 hPa Calm   1.6 km/h 88% 0 mm 503 W/m2
12:58 -11.7 °C -13.3 °C 1040.5 hPa Calm   1.6 km/h 88% 0 mm 496 W/m2
13:04 -11.6 °C -13.2 °C 1040.5 hPa East 1.6 km/h 4.8 km/h 88% 3.56 mm 497 W/m2
13:10 -11.6 °C -13.2 °C 1040.5 hPa NNW 1.6 km/h 1.6 km/h 88% 1.52 mm 496 W/m2
13:16 -11.6 °C -13.2 °C 1040.5 hPa NNW 1.6 km/h 1.6 km/h 88% 1.02 mm 503 W/m2
13:22 -11.6 °C -13.2 °C 1040.5 hPa NNW 1.6 km/h 1.6 km/h 88% 0 mm 503 W/m2
13:28 -11.3 °C -12.9 °C 1040.5 hPa NNW 1.6 km/h 3.2 km/h 88% 0 mm 496 W/m2
13:34 -11.2 °C -12.8 °C 1040.5 hPa NNW 1.6 km/h 3.2 km/h 88% 0 mm 489 W/m2
13:40 -11.2 °C -12.8 °C 1040.5 hPa NNW 1.6 km/h 1.6 km/h 88% 0 mm 482 W/m2
13:46 -11.2 °C -12.8 °C 1040.2 hPa Calm   1.6 km/h 88% 0 mm 469 W/m2
13:52 -11 °C -12.6 °C 1040.2 hPa Calm   1.6 km/h 88% 0 mm 457 W/m2
13:58 -11 °C -12.6 °C 1040.2 hPa Calm   1.6 km/h 88% 0 mm 448 W/m2
14:04 -11.1 °C -12.7 °C 1040.2 hPa NNW 1.6 km/h 1.6 km/h 88% 0 mm 436 W/m2
14:10 -11.2 °C -12.8 °C 1040.2 hPa NNW 1.6 km/h 1.6 km/h 88% 0 mm 427 W/m2
14:16 -11.3 °C -12.9 °C 1040.5 hPa NNW 1.6 km/h 1.6 km/h 88% 0 mm 417 W/m2
14:22 -11.3 °C -12.9 °C 1040.5 hPa NNW 1.6 km/h 1.6 km/h 88% 0 mm 401 W/m2
14:30 -11.2 °C -12.8 °C 1040.2 hPa Calm     88% 0 mm 381 W/m2
14:36 -11.1 °C -12.7 °C 1040.2 hPa NNW 1.6 km/h 1.6 km/h 88% 0 mm 371 W/m2
14:42 -11 °C -12.6 °C 1040.2 hPa NNW 1.6 km/h 1.6 km/h 88% 0 mm 359 W/m2
14:48 -11 °C -12.6 °C 1040.2 hPa Calm   1.6 km/h 88% 0 mm 345 W/m2
14:54 -10.9 °C -12.6 °C 1040.2 hPa Calm     88% 0 mm 332 W/m2
15:00 -10.7 °C -12.3 °C 1040.2 hPa West 1.6 km/h 1.6 km/h 88% 0 mm 318 W/m2
15:06 -10.7 °C -12.3 °C 1040.5 hPa West 1.6 km/h 1.6 km/h 88% 0 mm 301 W/m2
15:12 -10.7 °C -12.3 °C 1040.5 hPa Calm     88% 0 mm 287 W/m2
15:18 -10.4 °C -11.8 °C 1040.5 hPa Calm   4.8 km/h 89% 0 mm 269 W/m2
15:24 -10.4 °C -11.9 °C 1040.5 hPa West 1.6 km/h 1.6 km/h 89% 0 mm 253 W/m2
15:30 -10.6 °C -12.2 °C 1040.5 hPa Calm     88% 0 mm 237 W/m2
15:40 -10.8 °C -12.4 °C 1040.5 hPa Calm     88% 0 mm 213 W/m2
15:46 -10.9 °C -12.6 °C 1040.5 hPa Calm   1.6 km/h 88% 0 mm 181 W/m2
15:52 -10.9 °C -12.6 °C 1040.5 hPa Calm     88% 0 mm 178 W/m2
15:58 -10.9 °C -12.6 °C 1040.5 hPa Calm   1.6 km/h 88% 0 mm 144 W/m2
16:04 -11.1 °C -12.7 °C 1040.5 hPa Calm     88% 0 mm 76 W/m2
16:12 -11.3 °C -12.9 °C 1040.2 hPa Calm     88% 0 mm 107 W/m2
16:18 -11.5 °C -13.1 °C 1040.2 hPa Calm   4.8 km/h 88% 0 mm 19 W/m2
16:24 -11.7 °C -13.3 °C 1040.5 hPa West 1.6 km/h 1.6 km/h 88% 0 mm 18 W/m2
16:30 -11.9 °C -13.6 °C 1040.5 hPa Calm     88% 0 mm 16 W/m2
16:36 -12.2 °C -13.7 °C 1040.5 hPa Calm     88% 0 mm 12 W/m2
16:42 -12.4 °C -14 °C 1040.5 hPa Calm     88% 0 mm 11 W/m2
16:48 -12.8 °C -14.3 °C 1040.5 hPa Calm     88% 0 mm 7 W/m2
17:00 -13.6 °C -15.3 °C 1040.2 hPa Calm     87% 0 mm 0 W/m2
17:06 -13.9 °C -15.6 °C 1040.5 hPa Calm     87% 0 mm 0 W/m2
17:12 -14.2 °C -15.8 °C 1040.5 hPa Calm     87% 0 mm 0 W/m2
17:24 -14.8 °C -16.5 °C 1040.5 hPa Calm     87% 0 mm 0 W/m2
17:30 -15.1 °C -16.7 °C 1040.5 hPa Calm     87% 0 mm 0 W/m2
17:36 -15.2 °C -16.9 °C 1040.5 hPa Calm     87% 0 mm 0 W/m2
17:42 -15.4 °C -17.1 °C 1040.5 hPa Calm     87% 0 mm 0 W/m2
17:48 -15.7 °C -17.3 °C 1040.9 hPa Calm     87% 0 mm 0 W/m2
17:54 -15.9 °C -17.7 °C 1040.9 hPa Calm     86% 0 mm 0 W/m2
18:00 -16.2 °C -17.9 °C 1040.5 hPa Calm     86% 0 mm 0 W/m2
18:06 -16.4 °C -18.2 °C 1040.9 hPa Calm     86% 0 mm 0 W/m2
18:12 -16.7 °C -18.5 °C 1040.9 hPa Calm     86% 0 mm 0 W/m2
18:18 -16.9 °C -18.7 °C 1040.9 hPa Calm     86% 0 mm 0 W/m2
18:24 -17.2 °C -18.9 °C 1040.9 hPa Calm     86% 0 mm 0 W/m2
18:30 -17.3 °C -19.1 °C 1040.9 hPa Calm     86% 0 mm 0 W/m2
18:36 -17.5 °C -19.3 °C 1040.9 hPa Calm     86% 0 mm 0 W/m2
18:42 -17.7 °C -19.5 °C 1040.9 hPa Calm     86% 0 mm 0 W/m2
18:48 -17.9 °C -19.8 °C 1040.9 hPa Calm     85% 0 mm 0 W/m2
18:54 -18 °C -19.9 °C 1040.9 hPa Calm     85% 0 mm 0 W/m2
19:00 -18.2 °C -20.1 °C 1040.9 hPa Calm     85% 0 mm 0 W/m2
19:06 -18.4 °C -20.3 °C 1040.9 hPa Calm     85% 0 mm 0 W/m2
19:12 -18.7 °C -20.6 °C 1040.9 hPa Calm     85% 0 mm 0 W/m2
19:18 -18.9 °C -20.8 °C 1040.9 hPa Calm     85% 0 mm 0 W/m2
19:24 -19 °C -20.9 °C 1040.9 hPa Calm     85% 0 mm 0 W/m2
19:30 -19.1 °C -20.9 °C 1040.9 hPa Calm     85% 0 mm 0 W/m2
19:36 -19.1 °C -21 °C 1041.2 hPa Calm     85% 0 mm 0 W/m2
19:42 -19.2 °C -21.1 °C 1040.9 hPa Calm     85% 0 mm 0 W/m2
19:48 -19.4 °C -21.4 °C 1041.2 hPa Calm     84% 0 mm 0 W/m2
19:54 -19.5 °C -21.5 °C 1040.9 hPa Calm     84% 0 mm 0 W/m2
20:00 -19.7 °C -21.7 °C 1040.9 hPa Calm     84% 0 mm 0 W/m2
20:06 -19.8 °C -21.8 °C 1040.9 hPa Calm     84% 0 mm 0 W/m2
20:18 -20.1 °C -22.1 °C 1040.9 hPa Calm     84% 0 mm 0 W/m2
20:26 -20.2 °C -22.2 °C 1040.5 hPa Calm   1.6 km/h 84% 0 mm 0 W/m2
20:36 -20.3 °C -22.3 °C 1040.5 hPa Calm   1.6 km/h 84% 0 mm 0 W/m2
20:42 -20.5 °C -22.5 °C 1040.5 hPa Calm     84% 0 mm 0 W/m2
20:52 -20.7 °C -22.7 °C 1040.5 hPa Calm     84% 0 mm 0 W/m2
20:58 -20.6 °C -22.6 °C 1040.5 hPa Calm     84% 0 mm 0 W/m2
21:04 -20.6 °C -22.6 °C 1040.2 hPa Calm     84% 0 mm 0 W/m2
21:10 -20.4 °C -22.4 °C 1039.8 hPa East 1.6 km/h 1.6 km/h 84% 0 mm 0 W/m2
21:16 -20.2 °C -22.2 °C 1039.8 hPa Calm   1.6 km/h 84% 0 mm 0 W/m2
21:22 -20.2 °C -22.2 °C 1039.8 hPa Calm     84% 0 mm 0 W/m2
21:28 -20.4 °C -22.4 °C 1039.8 hPa Calm     84% 0 mm 0 W/m2
21:34 -20.5 °C -22.5 °C 1040.5 hPa Calm     84% 0 mm 0 W/m2
21:40 -20.6 °C -22.6 °C 1040.5 hPa Calm     84% 0 mm 0 W/m2
21:52 -20.9 °C -23.1 °C 1040.5 hPa Calm     83% 0 mm 0 W/m2
21:58 -21.1 °C -23.2 °C 1040.5 hPa Calm     83% 0 mm 0 W/m2
22:06 -21.2 °C -23.3 °C 1040.5 hPa Calm     83% 0 mm 0 W/m2
22:12 -21.2 °C -23.3 °C 1040.5 hPa Calm     83% 0 mm 0 W/m2
22:18 -21.3 °C -23.4 °C 1040.5 hPa Calm     83% 0 mm 0 W/m2
22:24 -21.4 °C -23.5 °C 1040.9 hPa Calm     83% 0 mm 0 W/m2
22:30 -21.4 °C -23.6 °C 1040.9 hPa Calm     83% 0 mm 0 W/m2
22:36 -21.4 °C -23.6 °C 1040.9 hPa Calm     83% 0 mm 0 W/m2
22:42 -21.4 °C -23.6 °C 1041.2 hPa Calm     83% 0 mm 0 W/m2
22:48 -21.4 °C -23.5 °C 1040.9 hPa Calm   1.6 km/h 83% 0 mm 0 W/m2
22:54 -21.4 °C -23.6 °C 1040.9 hPa Calm     83% 0 mm 0 W/m2
23:00 -21.4 °C -23.6 °C 1040.5 hPa Calm     83% 0 mm 0 W/m2
23:06 -21.6 °C -23.7 °C 1040.5 hPa Calm     83% 0 mm 0 W/m2
23:16 -21.6 °C -23.7 °C 1040.5 hPa Calm   1.6 km/h 83% 0 mm 0 W/m2
23:22 -21.7 °C -23.8 °C 1040.2 hPa Calm     83% 0 mm 0 W/m2
23:28 -21.6 °C -23.7 °C 1040.2 hPa Calm     83% 0 mm 0 W/m2
23:34 -21.4 °C -23.4 °C 1040.2 hPa Calm     84% 0 mm 0 W/m2
23:40 -21.3 °C -23.4 °C 1040.2 hPa Calm   1.6 km/h 83% 0 mm 0 W/m2
23:46 -21.2 °C -23.3 °C 1040.2 hPa Calm   1.6 km/h 83% 0 mm 0 W/m2
23:52 -21.2 °C -23.3 °C 1040.2 hPa Calm     83% 0 mm 0 W/m2
23:58 -21.3 °C -23.4 °C 1040.2 hPa Calm     83% 0 mm 0 W/m2
Country Meadow, Clay, NY, USA
Compliments of Weather Underground - 2 mb